sensor_id;sensor_type;location;lat;lon;timestamp;temperature;humidity
12060;DHT22;6091;51.432;6.880;2023-07-16T00:00:40;30.10;41.80
12060;DHT22;6091;51.432;6.880;2023-07-16T00:03:07;30.00;41.70
12060;DHT22;6091;51.432;6.880;2023-07-16T00:05:36;30.10;41.80
12060;DHT22;6091;51.432;6.880;2023-07-16T00:08:04;30.00;41.70
12060;DHT22;6091;51.432;6.880;2023-07-16T00:10:35;30.00;41.70
12060;DHT22;6091;51.432;6.880;2023-07-16T00:13:03;30.00;41.70
12060;DHT22;6091;51.432;6.880;2023-07-16T00:15:30;30.00;41.70
12060;DHT22;6091;51.432;6.880;2023-07-16T00:17:57;30.10;41.80
12060;DHT22;6091;51.432;6.880;2023-07-16T00:20:25;30.00;41.80
12060;DHT22;6091;51.432;6.880;2023-07-16T00:22:52;30.00;41.70
12060;DHT22;6091;51.432;6.880;2023-07-16T00:25:19;30.00;41.80
12060;DHT22;6091;51.432;6.880;2023-07-16T00:27:46;30.00;41.80
12060;DHT22;6091;51.432;6.880;2023-07-16T00:30:13;30.00;41.70
12060;DHT22;6091;51.432;6.880;2023-07-16T00:32:40;30.00;41.70
12060;DHT22;6091;51.432;6.880;2023-07-16T00:35:08;30.00;41.70
12060;DHT22;6091;51.432;6.880;2023-07-16T00:37:35;30.00;41.80
12060;DHT22;6091;51.432;6.880;2023-07-16T00:40:02;30.00;41.80
12060;DHT22;6091;51.432;6.880;2023-07-16T00:42:31;30.00;41.80
12060;DHT22;6091;51.432;6.880;2023-07-16T00:44:58;30.00;41.80
12060;DHT22;6091;51.432;6.880;2023-07-16T00:47:25;30.00;41.80
12060;DHT22;6091;51.432;6.880;2023-07-16T00:49:52;30.00;41.80
12060;DHT22;6091;51.432;6.880;2023-07-16T00:52:20;30.00;41.80
12060;DHT22;6091;51.432;6.880;2023-07-16T00:54:49;30.00;41.80
12060;DHT22;6091;51.432;6.880;2023-07-16T00:57:16;30.00;41.80
12060;DHT22;6091;51.432;6.880;2023-07-16T00:59:43;30.00;41.80
12060;DHT22;6091;51.432;6.880;2023-07-16T01:02:11;30.00;41.90
12060;DHT22;6091;51.432;6.880;2023-07-16T01:04:38;30.00;41.80
12060;DHT22;6091;51.432;6.880;2023-07-16T01:07:08;30.00;41.90
12060;DHT22;6091;51.432;6.880;2023-07-16T01:09:41;29.90;41.80
12060;DHT22;6091;51.432;6.880;2023-07-16T01:12:10;30.00;41.90
12060;DHT22;6091;51.432;6.880;2023-07-16T01:14:39;30.00;41.90
12060;DHT22;6091;51.432;6.880;2023-07-16T01:17:07;30.00;41.90
12060;DHT22;6091;51.432;6.880;2023-07-16T01:19:35;29.90;41.90
12060;DHT22;6091;51.432;6.880;2023-07-16T01:31:16;30.00;42.00
12060;DHT22;6091;51.432;6.880;2023-07-16T01:33:44;29.90;41.90
12060;DHT22;6091;51.432;6.880;2023-07-16T01:36:13;29.90;41.90
12060;DHT22;6091;51.432;6.880;2023-07-16T01:38:41;29.90;41.90
12060;DHT22;6091;51.432;6.880;2023-07-16T01:41:09;29.90;42.00
12060;DHT22;6091;51.432;6.880;2023-07-16T01:43:37;29.90;42.00
12060;DHT22;6091;51.432;6.880;2023-07-16T01:46:04;29.90;42.00
12060;DHT22;6091;51.432;6.880;2023-07-16T01:48:37;29.90;42.00
12060;DHT22;6091;51.432;6.880;2023-07-16T01:51:04;29.90;42.10
12060;DHT22;6091;51.432;6.880;2023-07-16T01:53:32;29.90;42.00
12060;DHT22;6091;51.432;6.880;2023-07-16T01:56:01;29.90;42.00
12060;DHT22;6091;51.432;6.880;2023-07-16T01:58:29;29.90;42.10
12060;DHT22;6091;51.432;6.880;2023-07-16T02:00:56;29.90;42.00
12060;DHT22;6091;51.432;6.880;2023-07-16T02:03:23;29.90;42.10
12060;DHT22;6091;51.432;6.880;2023-07-16T02:05:51;29.80;42.00
12060;DHT22;6091;51.432;6.880;2023-07-16T02:08:20;29.90;42.10
12060;DHT22;6091;51.432;6.880;2023-07-16T02:10:51;29.90;42.10
12060;DHT22;6091;51.432;6.880;2023-07-16T02:13:21;29.80;42.00
12060;DHT22;6091;51.432;6.880;2023-07-16T02:15:48;29.80;42.00
12060;DHT22;6091;51.432;6.880;2023-07-16T02:18:15;29.80;42.00
12060;DHT22;6091;51.432;6.880;2023-07-16T02:20:43;29.80;42.10
12060;DHT22;6091;51.432;6.880;2023-07-16T02:23:11;29.80;42.10
12060;DHT22;6091;51.432;6.880;2023-07-16T02:25:38;29.80;42.10
12060;DHT22;6091;51.432;6.880;2023-07-16T02:28:05;29.80;42.10
12060;DHT22;6091;51.432;6.880;2023-07-16T02:30:32;29.80;42.10
12060;DHT22;6091;51.432;6.880;2023-07-16T02:32:59;29.80;42.10
12060;DHT22;6091;51.432;6.880;2023-07-16T02:35:26;29.80;42.10
12060;DHT22;6091;51.432;6.880;2023-07-16T02:37:54;29.80;42.10
12060;DHT22;6091;51.432;6.880;2023-07-16T02:40:21;29.80;42.10
12060;DHT22;6091;51.432;6.880;2023-07-16T02:42:48;29.80;42.10
12060;DHT22;6091;51.432;6.880;2023-07-16T02:45:16;29.80;42.10
12060;DHT22;6091;51.432;6.880;2023-07-16T02:47:43;29.80;42.20
12060;DHT22;6091;51.432;6.880;2023-07-16T02:50:10;29.80;42.10
12060;DHT22;6091;51.432;6.880;2023-07-16T02:52:37;29.80;42.10
12060;DHT22;6091;51.432;6.880;2023-07-16T02:55:05;29.80;42.20
12060;DHT22;6091;51.432;6.880;2023-07-16T02:57:32;29.70;42.10
12060;DHT22;6091;51.432;6.880;2023-07-16T02:59:59;29.80;42.20
12060;DHT22;6091;51.432;6.880;2023-07-16T03:02:26;29.70;42.10
12060;DHT22;6091;51.432;6.880;2023-07-16T03:04:53;29.70;42.10
12060;DHT22;6091;51.432;6.880;2023-07-16T03:07:21;29.70;42.10
12060;DHT22;6091;51.432;6.880;2023-07-16T03:09:48;29.80;42.20
12060;DHT22;6091;51.432;6.880;2023-07-16T03:12:15;29.70;42.20
12060;DHT22;6091;51.432;6.880;2023-07-16T03:14:42;29.70;42.10
12060;DHT22;6091;51.432;6.880;2023-07-16T03:17:10;29.70;42.20
12060;DHT22;6091;51.432;6.880;2023-07-16T03:19:37;29.70;42.10
12060;DHT22;6091;51.432;6.880;2023-07-16T03:22:05;29.70;42.20
12060;DHT22;6091;51.432;6.880;2023-07-16T03:24:32;29.70;42.20
12060;DHT22;6091;51.432;6.880;2023-07-16T03:26:59;29.70;42.20
12060;DHT22;6091;51.432;6.880;2023-07-16T03:29:38;29.70;42.20
12060;DHT22;6091;51.432;6.880;2023-07-16T03:32:05;29.70;42.20
12060;DHT22;6091;51.432;6.880;2023-07-16T03:34:32;29.70;42.20
12060;DHT22;6091;51.432;6.880;2023-07-16T03:36:59;29.70;42.20
12060;DHT22;6091;51.432;6.880;2023-07-16T03:39:26;29.70;42.20
12060;DHT22;6091;51.432;6.880;2023-07-16T03:41:53;29.70;42.20
12060;DHT22;6091;51.432;6.880;2023-07-16T03:44:20;29.70;42.20
12060;DHT22;6091;51.432;6.880;2023-07-16T03:46:47;29.70;42.20
12060;DHT22;6091;51.432;6.880;2023-07-16T03:49:14;29.70;42.20
12060;DHT22;6091;51.432;6.880;2023-07-16T03:51:41;29.70;42.30
12060;DHT22;6091;51.432;6.880;2023-07-16T03:54:11;29.70;42.30
12060;DHT22;6091;51.432;6.880;2023-07-16T03:56:39;29.70;42.20
12060;DHT22;6091;51.432;6.880;2023-07-16T03:59:06;29.70;42.30
12060;DHT22;6091;51.432;6.880;2023-07-16T04:01:33;29.70;42.30
12060;DHT22;6091;51.432;6.880;2023-07-16T04:04:00;29.70;42.30
12060;DHT22;6091;51.432;6.880;2023-07-16T04:06:27;29.70;42.30
12060;DHT22;6091;51.432;6.880;2023-07-16T04:08:54;29.70;42.30
12060;DHT22;6091;51.432;6.880;2023-07-16T04:11:21;29.60;42.20
12060;DHT22;6091;51.432;6.880;2023-07-16T04:13:49;29.60;42.30
12060;DHT22;6091;51.432;6.880;2023-07-16T04:16:16;29.60;42.20
12060;DHT22;6091;51.432;6.880;2023-07-16T04:18:43;29.60;42.30
12060;DHT22;6091;51.432;6.880;2023-07-16T04:21:10;29.60;42.30
12060;DHT22;6091;51.432;6.880;2023-07-16T04:23:37;29.60;42.30
12060;DHT22;6091;51.432;6.880;2023-07-16T04:26:04;29.60;42.30
12060;DHT22;6091;51.432;6.880;2023-07-16T04:28:31;29.60;42.30
12060;DHT22;6091;51.432;6.880;2023-07-16T04:30:58;29.60;42.30
12060;DHT22;6091;51.432;6.880;2023-07-16T04:33:25;29.60;42.90
12060;DHT22;6091;51.432;6.880;2023-07-16T04:35:52;29.60;42.30
12060;DHT22;6091;51.432;6.880;2023-07-16T04:38:19;29.60;42.30
12060;DHT22;6091;51.432;6.880;2023-07-16T04:40:47;29.60;42.30
12060;DHT22;6091;51.432;6.880;2023-07-16T04:43:14;29.60;42.30
12060;DHT22;6091;51.432;6.880;2023-07-16T04:45:44;29.60;42.30
12060;DHT22;6091;51.432;6.880;2023-07-16T04:48:13;29.60;42.40
12060;DHT22;6091;51.432;6.880;2023-07-16T04:50:40;29.60;42.30
12060;DHT22;6091;51.432;6.880;2023-07-16T04:53:07;29.60;42.30
12060;DHT22;6091;51.432;6.880;2023-07-16T04:55:38;29.60;42.30
12060;DHT22;6091;51.432;6.880;2023-07-16T04:58:06;29.60;42.30
12060;DHT22;6091;51.432;6.880;2023-07-16T05:00:33;29.60;42.30
12060;DHT22;6091;51.432;6.880;2023-07-16T05:03:00;29.50;42.30
12060;DHT22;6091;51.432;6.880;2023-07-16T05:05:27;29.60;42.40
12060;DHT22;6091;51.432;6.880;2023-07-16T05:07:55;29.50;42.30
12060;DHT22;6091;51.432;6.880;2023-07-16T05:10:22;29.60;42.40
12060;DHT22;6091;51.432;6.880;2023-07-16T05:12:55;29.60;42.40
12060;DHT22;6091;51.432;6.880;2023-07-16T05:15:22;29.60;42.40
12060;DHT22;6091;51.432;6.880;2023-07-16T05:17:49;29.60;42.40
12060;DHT22;6091;51.432;6.880;2023-07-16T05:20:16;29.60;42.40
12060;DHT22;6091;51.432;6.880;2023-07-16T05:22:45;29.50;42.30
12060;DHT22;6091;51.432;6.880;2023-07-16T05:25:12;29.60;42.40
12060;DHT22;6091;51.432;6.880;2023-07-16T05:27:39;29.60;42.40
12060;DHT22;6091;51.432;6.880;2023-07-16T05:30:06;29.60;42.40
12060;DHT22;6091;51.432;6.880;2023-07-16T05:32:34;29.60;42.40
12060;DHT22;6091;51.432;6.880;2023-07-16T05:35:02;29.60;42.40
12060;DHT22;6091;51.432;6.880;2023-07-16T05:37:29;29.60;42.40
12060;DHT22;6091;51.432;6.880;2023-07-16T05:39:57;29.60;42.40
12060;DHT22;6091;51.432;6.880;2023-07-16T05:42:24;29.60;42.40
12060;DHT22;6091;51.432;6.880;2023-07-16T05:44:52;29.60;42.30
12060;DHT22;6091;51.432;6.880;2023-07-16T05:47:19;29.60;42.40
12060;DHT22;6091;51.432;6.880;2023-07-16T05:49:46;29.60;42.30
12060;DHT22;6091;51.432;6.880;2023-07-16T05:52:13;29.60;42.30
12060;DHT22;6091;51.432;6.880;2023-07-16T05:54:40;29.60;42.40
12060;DHT22;6091;51.432;6.880;2023-07-16T05:57:07;29.60;42.30
12060;DHT22;6091;51.432;6.880;2023-07-16T05:59:34;29.60;42.30
12060;DHT22;6091;51.432;6.880;2023-07-16T06:02:06;29.60;42.30
12060;DHT22;6091;51.432;6.880;2023-07-16T06:04:33;29.60;42.30
12060;DHT22;6091;51.432;6.880;2023-07-16T06:07:02;29.60;42.30
12060;DHT22;6091;51.432;6.880;2023-07-16T06:09:29;29.50;42.30
12060;DHT22;6091;51.432;6.880;2023-07-16T06:11:56;29.60;42.30
12060;DHT22;6091;51.432;6.880;2023-07-16T06:14:23;29.60;42.30
12060;DHT22;6091;51.432;6.880;2023-07-16T06:16:51;29.70;42.30
12060;DHT22;6091;51.432;6.880;2023-07-16T06:19:19;29.60;42.30
12060;DHT22;6091;51.432;6.880;2023-07-16T06:21:46;29.60;42.30
12060;DHT22;6091;51.432;6.880;2023-07-16T06:24:13;29.60;42.30
12060;DHT22;6091;51.432;6.880;2023-07-16T06:26:43;29.70;42.30
12060;DHT22;6091;51.432;6.880;2023-07-16T06:29:10;29.60;42.30
12060;DHT22;6091;51.432;6.880;2023-07-16T06:31:37;29.70;42.30
12060;DHT22;6091;51.432;6.880;2023-07-16T06:34:04;29.70;42.30
12060;DHT22;6091;51.432;6.880;2023-07-16T06:36:31;29.60;42.20
12060;DHT22;6091;51.432;6.880;2023-07-16T06:38:58;29.70;42.30
12060;DHT22;6091;51.432;6.880;2023-07-16T06:41:26;29.70;42.30
12060;DHT22;6091;51.432;6.880;2023-07-16T06:43:53;29.70;42.40
12060;DHT22;6091;51.432;6.880;2023-07-16T06:46:21;29.70;42.30
12060;DHT22;6091;51.432;6.880;2023-07-16T06:48:48;29.70;42.20
12060;DHT22;6091;51.432;6.880;2023-07-16T06:51:15;29.70;42.20
12060;DHT22;6091;51.432;6.880;2023-07-16T06:53:42;29.70;42.20
12060;DHT22;6091;51.432;6.880;2023-07-16T06:56:09;29.70;42.20
12060;DHT22;6091;51.432;6.880;2023-07-16T06:58:36;29.70;42.20
12060;DHT22;6091;51.432;6.880;2023-07-16T07:01:03;29.70;42.20
12060;DHT22;6091;51.432;6.880;2023-07-16T07:03:30;29.70;42.20
12060;DHT22;6091;51.432;6.880;2023-07-16T07:06:03;29.70;42.10
12060;DHT22;6091;51.432;6.880;2023-07-16T07:08:31;29.70;42.10
12060;DHT22;6091;51.432;6.880;2023-07-16T07:10:58;29.70;42.20
12060;DHT22;6091;51.432;6.880;2023-07-16T07:13:25;29.80;42.20
12060;DHT22;6091;51.432;6.880;2023-07-16T07:15:52;29.80;42.20
12060;DHT22;6091;51.432;6.880;2023-07-16T07:18:19;29.80;42.20
12060;DHT22;6091;51.432;6.880;2023-07-16T07:20:46;29.80;42.20
12060;DHT22;6091;51.432;6.880;2023-07-16T07:23:15;29.80;42.10
12060;DHT22;6091;51.432;6.880;2023-07-16T07:25:43;29.80;42.20
12060;DHT22;6091;51.432;6.880;2023-07-16T07:28:10;29.80;41.90
12060;DHT22;6091;51.432;6.880;2023-07-16T07:30:37;29.90;42.20
12060;DHT22;6091;51.432;6.880;2023-07-16T07:33:04;29.90;42.20
12060;DHT22;6091;51.432;6.880;2023-07-16T07:35:31;29.90;42.20
12060;DHT22;6091;51.432;6.880;2023-07-16T07:37:58;29.90;42.20
12060;DHT22;6091;51.432;6.880;2023-07-16T07:40:26;29.90;42.20
12060;DHT22;6091;51.432;6.880;2023-07-16T07:42:53;29.90;42.10
12060;DHT22;6091;51.432;6.880;2023-07-16T07:45:20;29.90;42.10
12060;DHT22;6091;51.432;6.880;2023-07-16T07:47:47;29.90;42.10
12060;DHT22;6091;51.432;6.880;2023-07-16T07:50:15;30.00;42.10
12060;DHT22;6091;51.432;6.880;2023-07-16T07:52:43;30.00;42.10
12060;DHT22;6091;51.432;6.880;2023-07-16T07:55:10;30.00;42.10
12060;DHT22;6091;51.432;6.880;2023-07-16T07:57:40;30.00;41.30
12060;DHT22;6091;51.432;6.880;2023-07-16T08:00:08;30.00;40.40
12060;DHT22;6091;51.432;6.880;2023-07-16T08:02:38;29.90;40.20
12060;DHT22;6091;51.432;6.880;2023-07-16T08:05:06;29.90;39.90
12060;DHT22;6091;51.432;6.880;2023-07-16T08:07:35;29.80;39.60
12060;DHT22;6091;51.432;6.880;2023-07-16T08:10:03;29.70;39.80
12060;DHT22;6091;51.432;6.880;2023-07-16T08:12:30;29.70;39.70
12060;DHT22;6091;51.432;6.880;2023-07-16T08:14:58;29.50;39.60
12060;DHT22;6091;51.432;6.880;2023-07-16T08:17:26;29.50;39.70
12060;DHT22;6091;51.432;6.880;2023-07-16T08:19:53;29.50;39.50
12060;DHT22;6091;51.432;6.880;2023-07-16T08:22:20;29.40;39.20
12060;DHT22;6091;51.432;6.880;2023-07-16T08:24:48;29.30;39.00
12060;DHT22;6091;51.432;6.880;2023-07-16T08:27:15;29.30;39.10
12060;DHT22;6091;51.432;6.880;2023-07-16T08:29:43;29.20;39.10
12060;DHT22;6091;51.432;6.880;2023-07-16T08:32:10;29.10;38.60
12060;DHT22;6091;51.432;6.880;2023-07-16T08:34:37;29.10;38.80
12060;DHT22;6091;51.432;6.880;2023-07-16T08:37:04;29.00;38.90
12060;DHT22;6091;51.432;6.880;2023-07-16T08:39:32;29.00;38.80
12060;DHT22;6091;51.432;6.880;2023-07-16T08:41:59;28.90;38.80
12060;DHT22;6091;51.432;6.880;2023-07-16T08:44:26;28.90;39.10
12060;DHT22;6091;51.432;6.880;2023-07-16T08:46:56;28.80;38.90
12060;DHT22;6091;51.432;6.880;2023-07-16T08:49:25;28.80;38.50
12060;DHT22;6091;51.432;6.880;2023-07-16T08:51:56;28.80;38.70
12060;DHT22;6091;51.432;6.880;2023-07-16T08:54:24;28.80;39.10
12060;DHT22;6091;51.432;6.880;2023-07-16T08:56:52;28.80;38.90
12060;DHT22;6091;51.432;6.880;2023-07-16T08:59:20;28.80;39.30
12060;DHT22;6091;51.432;6.880;2023-07-16T09:01:48;28.80;38.30
12060;DHT22;6091;51.432;6.880;2023-07-16T09:04:19;28.70;38.40
12060;DHT22;6091;51.432;6.880;2023-07-16T09:06:46;28.70;38.20
12060;DHT22;6091;51.432;6.880;2023-07-16T09:09:22;28.70;38.40
12060;DHT22;6091;51.432;6.880;2023-07-16T09:11:50;28.70;38.20
12060;DHT22;6091;51.432;6.880;2023-07-16T09:14:21;28.70;38.40
12060;DHT22;6091;51.432;6.880;2023-07-16T09:16:49;28.70;38.00
12060;DHT22;6091;51.432;6.880;2023-07-16T09:19:21;28.70;38.40
12060;DHT22;6091;51.432;6.880;2023-07-16T09:21:49;28.70;39.00
12060;DHT22;6091;51.432;6.880;2023-07-16T09:24:18;28.70;38.00
12060;DHT22;6091;51.432;6.880;2023-07-16T09:26:52;28.70;38.00
12060;DHT22;6091;51.432;6.880;2023-07-16T09:29:20;28.80;37.70
12060;DHT22;6091;51.432;6.880;2023-07-16T09:32:06;28.70;37.60
12060;DHT22;6091;51.432;6.880;2023-07-16T09:34:33;28.70;37.30
12060;DHT22;6091;51.432;6.880;2023-07-16T09:37:02;28.70;37.90
12060;DHT22;6091;51.432;6.880;2023-07-16T09:39:32;28.70;37.80
12060;DHT22;6091;51.432;6.880;2023-07-16T09:42:01;28.70;37.70
12060;DHT22;6091;51.432;6.880;2023-07-16T09:44:29;28.70;37.70
12060;DHT22;6091;51.432;6.880;2023-07-16T09:46:57;28.70;37.80
12060;DHT22;6091;51.432;6.880;2023-07-16T09:49:28;28.70;37.50
12060;DHT22;6091;51.432;6.880;2023-07-16T09:51:57;28.70;37.20
12060;DHT22;6091;51.432;6.880;2023-07-16T09:54:25;28.70;37.50
12060;DHT22;6091;51.432;6.880;2023-07-16T09:56:57;28.70;37.50
12060;DHT22;6091;51.432;6.880;2023-07-16T09:59:29;28.70;38.00
12060;DHT22;6091;51.432;6.880;2023-07-16T10:01:58;28.70;37.40
12060;DHT22;6091;51.432;6.880;2023-07-16T10:04:26;28.70;37.60
12060;DHT22;6091;51.432;6.880;2023-07-16T10:07:03;28.70;37.60
12060;DHT22;6091;51.432;6.880;2023-07-16T10:12:16;28.80;37.20
12060;DHT22;6091;51.432;6.880;2023-07-16T10:14:48;28.80;37.00
12060;DHT22;6091;51.432;6.880;2023-07-16T10:17:21;28.80;37.50
12060;DHT22;6091;51.432;6.880;2023-07-16T10:19:56;28.80;37.20
12060;DHT22;6091;51.432;6.880;2023-07-16T10:22:51;28.80;37.30
12060;DHT22;6091;51.432;6.880;2023-07-16T10:27:48;28.90;37.60
12060;DHT22;6091;51.432;6.880;2023-07-16T10:30:17;28.90;37.40
12060;DHT22;6091;51.432;6.880;2023-07-16T10:32:45;29.00;37.20
12060;DHT22;6091;51.432;6.880;2023-07-16T10:35:13;29.00;37.20
12060;DHT22;6091;51.432;6.880;2023-07-16T10:37:40;29.00;36.90
12060;DHT22;6091;51.432;6.880;2023-07-16T10:40:14;29.00;37.10
12060;DHT22;6091;51.432;6.880;2023-07-16T10:42:43;29.00;37.00
12060;DHT22;6091;51.432;6.880;2023-07-16T10:45:11;29.10;37.90
12060;DHT22;6091;51.432;6.880;2023-07-16T10:47:50;29.10;37.40
12060;DHT22;6091;51.432;6.880;2023-07-16T10:50:19;29.10;37.30
12060;DHT22;6091;51.432;6.880;2023-07-16T10:52:54;29.20;37.40
12060;DHT22;6091;51.432;6.880;2023-07-16T10:55:23;29.20;37.10
12060;DHT22;6091;51.432;6.880;2023-07-16T10:57:52;29.20;37.00
12060;DHT22;6091;51.432;6.880;2023-07-16T11:00:21;29.30;37.10
12060;DHT22;6091;51.432;6.880;2023-07-16T11:02:52;29.30;37.00
12060;DHT22;6091;51.432;6.880;2023-07-16T11:05:19;29.30;36.90
12060;DHT22;6091;51.432;6.880;2023-07-16T11:07:49;29.30;37.10
12060;DHT22;6091;51.432;6.880;2023-07-16T11:10:22;29.30;37.00
12060;DHT22;6091;51.432;6.880;2023-07-16T11:12:53;29.40;36.90
12060;DHT22;6091;51.432;6.880;2023-07-16T11:15:33;29.40;36.80
12060;DHT22;6091;51.432;6.880;2023-07-16T11:18:02;29.40;36.50
12060;DHT22;6091;51.432;6.880;2023-07-16T11:20:30;29.40;36.50
12060;DHT22;6091;51.432;6.880;2023-07-16T11:23:01;29.40;36.30
12060;DHT22;6091;51.432;6.880;2023-07-16T11:25:29;29.40;36.40
12060;DHT22;6091;51.432;6.880;2023-07-16T11:27:56;29.40;36.40
12060;DHT22;6091;51.432;6.880;2023-07-16T11:30:26;29.40;36.30
12060;DHT22;6091;51.432;6.880;2023-07-16T11:32:54;29.40;36.50
12060;DHT22;6091;51.432;6.880;2023-07-16T11:35:25;29.40;36.40
12060;DHT22;6091;51.432;6.880;2023-07-16T11:37:54;29.40;36.30
12060;DHT22;6091;51.432;6.880;2023-07-16T11:40:22;29.40;36.30
12060;DHT22;6091;51.432;6.880;2023-07-16T11:42:49;29.40;36.40
12060;DHT22;6091;51.432;6.880;2023-07-16T11:45:24;29.40;36.50
12060;DHT22;6091;51.432;6.880;2023-07-16T11:47:54;29.40;36.30
12060;DHT22;6091;51.432;6.880;2023-07-16T11:50:22;29.40;36.50
12060;DHT22;6091;51.432;6.880;2023-07-16T11:52:54;29.40;36.30
12060;DHT22;6091;51.432;6.880;2023-07-16T11:55:33;29.40;36.00
12060;DHT22;6091;51.432;6.880;2023-07-16T11:58:00;29.40;36.10
12060;DHT22;6091;51.432;6.880;2023-07-16T12:00:29;29.40;36.20
12060;DHT22;6091;51.432;6.880;2023-07-16T12:02:56;29.40;36.10
12060;DHT22;6091;51.432;6.880;2023-07-16T12:05:23;29.40;36.10
12060;DHT22;6091;51.432;6.880;2023-07-16T12:08:12;29.40;35.90
12060;DHT22;6091;51.432;6.880;2023-07-16T12:10:41;29.40;35.90
12060;DHT22;6091;51.432;6.880;2023-07-16T12:13:08;29.30;35.90
12060;DHT22;6091;51.432;6.880;2023-07-16T12:15:35;29.40;35.90
12060;DHT22;6091;51.432;6.880;2023-07-16T12:18:02;29.40;36.00
12060;DHT22;6091;51.432;6.880;2023-07-16T12:20:30;29.40;35.80
12060;DHT22;6091;51.432;6.880;2023-07-16T12:22:57;29.30;35.70
12060;DHT22;6091;51.432;6.880;2023-07-16T12:25:24;29.30;36.40
12060;DHT22;6091;51.432;6.880;2023-07-16T12:27:51;29.30;35.80
12060;DHT22;6091;51.432;6.880;2023-07-16T12:30:22;29.30;35.90
12060;DHT22;6091;51.432;6.880;2023-07-16T12:32:49;29.30;35.90
12060;DHT22;6091;51.432;6.880;2023-07-16T12:35:16;29.30;35.80
12060;DHT22;6091;51.432;6.880;2023-07-16T12:37:43;29.30;35.90
12060;DHT22;6091;51.432;6.880;2023-07-16T12:40:10;29.30;35.90
12060;DHT22;6091;51.432;6.880;2023-07-16T12:42:38;29.30;35.90
12060;DHT22;6091;51.432;6.880;2023-07-16T12:45:05;29.40;35.80
12060;DHT22;6091;51.432;6.880;2023-07-16T12:47:33;29.30;35.80
12060;DHT22;6091;51.432;6.880;2023-07-16T12:50:00;29.40;35.80
12060;DHT22;6091;51.432;6.880;2023-07-16T12:52:27;29.40;35.90
12060;DHT22;6091;51.432;6.880;2023-07-16T12:54:54;29.40;35.90
12060;DHT22;6091;51.432;6.880;2023-07-16T12:57:24;29.40;36.00
12060;DHT22;6091;51.432;6.880;2023-07-16T12:59:53;29.40;35.80
12060;DHT22;6091;51.432;6.880;2023-07-16T13:02:20;29.40;35.70
12060;DHT22;6091;51.432;6.880;2023-07-16T13:04:47;29.50;35.90
12060;DHT22;6091;51.432;6.880;2023-07-16T13:07:14;29.50;35.80
12060;DHT22;6091;51.432;6.880;2023-07-16T13:09:41;29.50;35.90
12060;DHT22;6091;51.432;6.880;2023-07-16T13:12:08;29.60;35.80
12060;DHT22;6091;51.432;6.880;2023-07-16T13:14:35;29.70;35.90
12060;DHT22;6091;51.432;6.880;2023-07-16T13:17:02;29.70;36.10
12060;DHT22;6091;51.432;6.880;2023-07-16T13:19:32;29.80;36.00
12060;DHT22;6091;51.432;6.880;2023-07-16T13:21:59;30.00;35.90
12060;DHT22;6091;51.432;6.880;2023-07-16T13:24:26;30.00;35.70
12060;DHT22;6091;51.432;6.880;2023-07-16T13:26:53;30.10;35.80
12060;DHT22;6091;51.432;6.880;2023-07-16T13:29:20;30.20;35.50
12060;DHT22;6091;51.432;6.880;2023-07-16T13:31:47;30.20;35.60
12060;DHT22;6091;51.432;6.880;2023-07-16T13:34:14;30.20;35.50
12060;DHT22;6091;51.432;6.880;2023-07-16T13:36:41;30.30;35.40
12060;DHT22;6091;51.432;6.880;2023-07-16T13:39:08;30.30;35.30
12060;DHT22;6091;51.432;6.880;2023-07-16T13:41:36;30.30;35.20
12060;DHT22;6091;51.432;6.880;2023-07-16T13:44:03;30.30;35.10
12060;DHT22;6091;51.432;6.880;2023-07-16T13:46:31;30.30;35.20
12060;DHT22;6091;51.432;6.880;2023-07-16T13:48:58;30.30;35.20
12060;DHT22;6091;51.432;6.880;2023-07-16T13:51:26;30.30;35.10
12060;DHT22;6091;51.432;6.880;2023-07-16T13:53:53;30.30;35.10
12060;DHT22;6091;51.432;6.880;2023-07-16T13:56:21;30.30;35.10
12060;DHT22;6091;51.432;6.880;2023-07-16T13:58:47;30.30;35.00
12060;DHT22;6091;51.432;6.880;2023-07-16T14:01:18;30.30;35.00
12060;DHT22;6091;51.432;6.880;2023-07-16T14:03:45;30.30;34.80
12060;DHT22;6091;51.432;6.880;2023-07-16T14:06:13;30.30;34.90
12060;DHT22;6091;51.432;6.880;2023-07-16T14:08:40;30.30;34.80
12060;DHT22;6091;51.432;6.880;2023-07-16T14:11:07;30.30;34.80
12060;DHT22;6091;51.432;6.880;2023-07-16T14:13:34;30.30;34.70
12060;DHT22;6091;51.432;6.880;2023-07-16T14:16:01;30.30;34.50
12060;DHT22;6091;51.432;6.880;2023-07-16T14:18:30;30.30;34.50
12060;DHT22;6091;51.432;6.880;2023-07-16T14:20:57;30.30;34.40
12060;DHT22;6091;51.432;6.880;2023-07-16T14:23:25;30.40;34.50
12060;DHT22;6091;51.432;6.880;2023-07-16T14:25:52;30.30;34.30
12060;DHT22;6091;51.432;6.880;2023-07-16T14:28:19;30.30;34.30
12060;DHT22;6091;51.432;6.880;2023-07-16T14:30:46;30.40;34.20
12060;DHT22;6091;51.432;6.880;2023-07-16T14:33:13;30.30;34.10
12060;DHT22;6091;51.432;6.880;2023-07-16T14:35:40;30.30;34.10
12060;DHT22;6091;51.432;6.880;2023-07-16T14:38:07;30.30;34.10
12060;DHT22;6091;51.432;6.880;2023-07-16T14:40:34;30.30;34.00
12060;DHT22;6091;51.432;6.880;2023-07-16T14:43:03;30.30;33.90
12060;DHT22;6091;51.432;6.880;2023-07-16T14:45:31;30.30;33.90
12060;DHT22;6091;51.432;6.880;2023-07-16T14:47:59;30.30;33.80
12060;DHT22;6091;51.432;6.880;2023-07-16T14:50:27;30.30;34.00
12060;DHT22;6091;51.432;6.880;2023-07-16T14:52:54;30.30;34.50
12060;DHT22;6091;51.432;6.880;2023-07-16T14:55:21;30.30;34.60
12060;DHT22;6091;51.432;6.880;2023-07-16T14:57:49;30.20;33.90
12060;DHT22;6091;51.432;6.880;2023-07-16T15:00:16;30.30;33.90
12060;DHT22;6091;51.432;6.880;2023-07-16T15:02:44;30.30;33.70
12060;DHT22;6091;51.432;6.880;2023-07-16T15:05:11;30.30;33.70
12060;DHT22;6091;51.432;6.880;2023-07-16T15:07:38;30.30;33.50
12060;DHT22;6091;51.432;6.880;2023-07-16T15:10:06;30.20;33.40
12060;DHT22;6091;51.432;6.880;2023-07-16T15:12:33;30.20;33.50
12060;DHT22;6091;51.432;6.880;2023-07-16T15:15:01;30.20;33.60
12060;DHT22;6091;51.432;6.880;2023-07-16T15:17:28;30.20;33.70
12060;DHT22;6091;51.432;6.880;2023-07-16T15:19:55;30.20;33.70
12060;DHT22;6091;51.432;6.880;2023-07-16T15:22:22;30.20;33.60
12060;DHT22;6091;51.432;6.880;2023-07-16T15:24:49;30.20;33.60
12060;DHT22;6091;51.432;6.880;2023-07-16T15:27:16;30.20;33.70
12060;DHT22;6091;51.432;6.880;2023-07-16T15:29:43;30.20;33.70
12060;DHT22;6091;51.432;6.880;2023-07-16T15:32:11;30.20;33.60
12060;DHT22;6091;51.432;6.880;2023-07-16T15:34:38;30.20;33.60
12060;DHT22;6091;51.432;6.880;2023-07-16T15:37:05;30.20;33.60
12060;DHT22;6091;51.432;6.880;2023-07-16T15:39:32;30.10;33.60
12060;DHT22;6091;51.432;6.880;2023-07-16T15:42:00;30.10;33.60
12060;DHT22;6091;51.432;6.880;2023-07-16T15:44:27;30.10;33.60
12060;DHT22;6091;51.432;6.880;2023-07-16T15:46:54;30.10;33.60
12060;DHT22;6091;51.432;6.880;2023-07-16T15:49:23;30.10;33.60
12060;DHT22;6091;51.432;6.880;2023-07-16T15:51:50;30.10;33.70
12060;DHT22;6091;51.432;6.880;2023-07-16T15:54:18;30.10;33.60
12060;DHT22;6091;51.432;6.880;2023-07-16T15:56:45;30.20;33.60
12060;DHT22;6091;51.432;6.880;2023-07-16T15:59:13;30.20;33.70
12060;DHT22;6091;51.432;6.880;2023-07-16T16:01:40;30.20;33.50
12060;DHT22;6091;51.432;6.880;2023-07-16T16:04:07;30.20;33.50